Time;durP1;ratioP1;P1;durP2;ratioP2;P2;SDS_P1;SDS_P2;PMS_P1;PMS_P2;Temp;Humidity;BMP_temperature;BMP_pressure;BME280_temperature;BME280_humidity;BME280_pressure;Samples;Min_cycle;Max_cycle;Signal;HPM_P1;HPM_P2
2022/01/17 00:00:31;;;;;;;115.15;49.72;;;1.40;62.20;;;;;;5009245;28;20033;-68
2022/01/17 00:02:59;;;;;;;120.65;51.75;;;1.40;62.20;;;;;;4999467;28;20034;-68
2022/01/17 00:05:26;;;;;;;106.53;45.33;;;1.40;61.70;;;;;;5002994;28;20039;-68
2022/01/17 00:07:52;;;;;;;92.20;41.88;;;1.40;61.70;;;;;;5004460;28;20026;-69
2022/01/17 00:10:18;;;;;;;90.30;39.63;;;1.40;62.40;;;;;;4977939;28;20050;-69
2022/01/17 00:12:45;;;;;;;;;;;1.40;62.30;;;;;;4992310;28;20043;-69
2022/01/17 00:15:42;;;;;;;;;;;1.50;62.20;;;;;;5005490;28;19921;-68
2022/01/17 00:18:40;;;;;;;70.50;32.10;;;1.50;61.90;;;;;;4993282;28;19921;-69
2022/01/17 00:20:56;;;;;;;70.93;33.80;;;1.40;62.20;;;;;;4993272;28;20131;-69
2022/01/17 00:23:22;;;;;;;74.68;36.63;;;1.40;61.70;;;;;;4990768;28;20040;-68
2022/01/17 00:25:49;;;;;;;;;;;1.50;62.50;;;;;;4993983;28;20057;-68
2022/01/17 00:28:15;;;;;;;68.97;34.65;;;1.50;62.40;;;;;;5000567;28;19921;-68
2022/01/17 00:30:41;;;;;;;79.65;36.92;;;1.50;62.30;;;;;;5007901;28;20430;-69
2022/01/17 00:33:07;;;;;;;73.35;34.25;;;1.60;62.40;;;;;;5010373;28;20121;-68
2022/01/17 00:35:33;;;;;;;70.47;32.03;;;1.50;62.70;;;;;;5007932;28;20080;-69
2022/01/17 00:37:59;;;;;;;62.47;30.30;;;1.50;62.70;;;;;;4994039;28;20034;-69
2022/01/17 00:40:28;;;;;;;68.57;30.98;;;1.40;62.90;;;;;;5007501;28;20034;-69
2022/01/17 00:42:54;;;;;;;59.72;28.60;;;1.40;63.00;;;;;;4992994;28;20037;-68
2022/01/17 00:45:27;;;;;;;55.80;28.10;;;1.30;63.20;;;;;;4993083;28;20050;-69
2022/01/17 00:47:55;;;;;;;56.47;26.80;;;1.30;63.20;;;;;;5005190;28;20042;-69
2022/01/17 00:50:42;;;;;;;59.95;29.83;;;1.40;62.80;;;;;;4991598;28;20447;-68
2022/01/17 00:53:10;;;;;;;69.18;30.08;;;1.40;62.80;;;;;;4993048;28;20155;-68
2022/01/17 00:55:38;;;;;;;63.55;29.80;;;1.40;63.00;;;;;;4992031;28;20381;-69
2022/01/17 00:58:05;;;;;;;62.78;30.83;;;1.40;62.80;;;;;;4975107;28;20034;-68
2022/01/17 01:00:31;;;;;;;64.22;30.90;;;1.40;62.70;;;;;;4991374;28;20492;-69
2022/01/17 01:02:57;;;;;;;62.35;32.20;;;1.40;62.10;;;;;;4991221;28;20046;-69
2022/01/17 01:05:24;;;;;;;72.22;35.08;;;1.40;62.70;;;;;;4997684;28;20045;-68
2022/01/17 01:07:51;;;;;;;67.38;34.13;;;1.40;62.80;;;;;;5002720;28;20034;-69
2022/01/17 01:10:17;;;;;;;66.47;34.65;;;1.40;62.90;;;;;;4991129;28;20511;-69
2022/01/17 01:12:45;;;;;;;;;;;1.50;63.00;;;;;;4981628;28;20037;-68
2022/01/17 01:15:20;;;;;;;87.50;42.17;;;1.40;62.50;;;;;;5000611;28;20020;-67
2022/01/17 01:28:35;;;;;;;99.40;44.08;;;1.40;63.10;;;;;;4990153;28;20084;-68
2022/01/17 01:31:06;;;;;;;131.18;56.50;;;1.40;63.00;;;;;;4990713;28;20466;-68
2022/01/17 01:33:36;;;;;;;124.93;56.40;;;1.50;63.40;;;;;;4990367;28;20042;-68
2022/01/17 01:36:21;;;;;;;120.72;54.30;;;1.50;63.30;;;;;;4990800;28;20542;-69
2022/01/17 01:38:48;;;;;;;149.80;62.58;;;1.40;63.20;;;;;;4990966;28;20073;-69
2022/01/17 01:41:14;;;;;;;152.13;63.30;;;1.40;63.40;;;;;;4991967;28;20491;-69
2022/01/17 01:43:41;;;;;;;146.77;61.58;;;1.40;63.30;;;;;;4991656;28;20387;-68
2022/01/17 01:46:08;;;;;;;143.93;62.40;;;1.40;63.50;;;;;;4992321;28;20091;-68
2022/01/17 01:48:36;;;;;;;121.13;58.17;;;1.50;63.60;;;;;;4991323;28;20046;-69
2022/01/17 01:51:03;;;;;;;142.35;61.63;;;1.50;62.80;;;;;;5005441;28;20124;-69
2022/01/17 01:53:30;;;;;;;153.25;63.83;;;1.60;62.80;;;;;;4974365;28;20426;-69
2022/01/17 01:55:58;;;;;;;150.07;63.38;;;1.60;63.30;;;;;;4992126;28;20026;-69
2022/01/17 01:58:26;;;;;;;112.10;53.63;;;1.60;63.20;;;;;;4973438;28;20061;-69
2022/01/17 02:00:53;;;;;;;119.80;52.40;;;1.60;63.30;;;;;;4998900;28;20035;-68
2022/01/17 02:03:20;;;;;;;115.10;50.67;;;1.60;63.40;;;;;;4994051;28;20076;-69
2022/01/17 02:05:46;;;;;;;123.68;51.42;;;1.50;63.40;;;;;;5003058;28;20042;-68
2022/01/17 02:08:14;;;;;;;120.85;52.70;;;1.60;63.40;;;;;;4993773;28;20100;-69
2022/01/17 02:10:40;;;;;;;131.15;57.83;;;1.60;63.20;;;;;;5008340;28;20490;-68
2022/01/17 02:13:06;;;;;;;132.52;61.22;;;1.60;63.40;;;;;;5007256;28;20038;-68
2022/01/17 02:15:33;;;;;;;128.15;59.78;;;1.50;62.90;;;;;;4993777;28;20153;-68
2022/01/17 02:17:59;;;;;;;;;;;1.50;63.60;;;;;;5011807;28;20045;-69
2022/01/17 02:21:09;;;;;;;105.22;47.58;;;1.50;63.50;;;;;;5012100;28;19925;-68
2022/01/17 02:23:32;;;;;;;118.68;54.13;;;1.50;63.40;;;;;;5012256;28;20038;-69
2022/01/17 02:25:58;;;;;;;126.00;52.88;;;1.50;63.50;;;;;;5002046;28;20037;-69
2022/01/17 02:28:24;;;;;;;102.00;48.00;;;1.40;63.40;;;;;;4995905;28;20034;-69
2022/01/17 02:30:50;;;;;;;78.72;34.78;;;1.40;63.60;;;;;;4994045;28;20069;-68
2022/01/17 02:33:19;;;;;;;68.32;31.58;;;1.30;63.80;;;;;;4994986;28;20077;-69
2022/01/17 02:36:04;;;;;;;71.53;33.47;;;1.30;63.90;;;;;;4995003;28;20051;-68
2022/01/17 02:38:30;;;;;;;73.75;33.47;;;1.20;63.40;;;;;;4994842;28;20042;-68
2022/01/17 02:40:56;;;;;;;75.63;35.42;;;1.20;63.80;;;;;;4995331;28;20042;-68
2022/01/17 02:43:26;;;;;;;72.93;37.97;;;1.20;63.80;;;;;;4994317;28;20046;-68
2022/01/17 02:48:42;;;;;;;67.40;34.67;;;1.30;63.60;;;;;;4996836;28;20116;-68
2022/01/17 02:51:11;;;;;;;88.35;39.55;;;1.30;63.60;;;;;;4995060;28;20065;-68
2022/01/17 02:53:40;;;;;;;79.22;40.10;;;1.30;63.60;;;;;;4993597;28;20046;-68
2022/01/17 02:56:09;;;;;;;86.05;40.75;;;1.30;63.10;;;;;;4994637;28;20062;-69
2022/01/17 02:58:37;;;;;;;89.78;40.53;;;1.40;63.50;;;;;;4993963;28;20040;-69
2022/01/17 03:01:26;;;;;;;97.32;44.80;;;1.40;63.40;;;;;;5006838;28;20487;-68
2022/01/17 03:03:52;;;;;;;101.13;46.10;;;1.40;63.50;;;;;;5007868;28;23935;-68
2022/01/17 03:06:18;;;;;;;;;;;1.50;63.60;;;;;;5011919;28;20050;-68
2022/01/17 03:08:46;;;;;;;107.95;50.90;;;1.40;63.20;;;;;;4994661;28;19950;-68
2022/01/17 03:11:16;;;;;;;117.38;51.53;;;1.40;63.20;;;;;;4994242;28;20030;-69
2022/01/17 03:13:44;;;;;;;107.65;45.85;;;1.50;63.50;;;;;;4993380;28;20498;-68
2022/01/17 03:16:30;;;;;;;112.30;46.90;;;1.30;63.70;;;;;;5010125;28;20426;-68
2022/01/17 03:18:57;;;;;;;117.20;45.42;;;1.30;64.30;;;;;;4993230;28;20038;-68
2022/01/17 03:21:27;;;;;;;90.88;40.60;;;1.40;63.90;;;;;;4996178;28;20150;-68
2022/01/17 03:23:53;;;;;;;84.22;37.92;;;1.30;64.10;;;;;;5004810;28;20060;-69
2022/01/17 03:26:19;;;;;;;76.30;34.50;;;1.30;64.30;;;;;;4976510;28;20045;-69
2022/01/17 03:28:45;;;;;;;;;;;1.30;64.50;;;;;;4995024;28;20261;-69
2022/01/17 03:31:12;;;;;;;69.68;31.92;;;1.20;64.40;;;;;;4994291;28;20013;-68
2022/01/17 03:33:39;;;;;;;72.65;33.95;;;1.10;64.70;;;;;;4992735;28;20042;-68
2022/01/17 03:36:06;;;;;;;67.18;31.88;;;1.10;64.10;;;;;;4992882;28;20026;-67
2022/01/17 03:38:34;;;;;;;71.28;32.30;;;1.20;64.80;;;;;;4997114;28;20065;-69
2022/01/17 03:41:02;;;;;;;78.35;34.10;;;1.20;64.70;;;;;;5004678;28;20080;-69
2022/01/17 03:43:28;;;;;;;61.10;30.52;;;1.20;64.60;;;;;;4993115;28;20104;-69
2022/01/17 03:45:57;;;;;;;67.22;32.80;;;1.20;64.50;;;;;;4992605;28;20038;-69
2022/01/17 03:48:23;;;;;;;66.45;30.92;;;1.20;64.60;;;;;;4993773;28;20042;-68
2022/01/17 03:50:51;;;;;;;57.83;28.52;;;1.20;64.40;;;;;;4974743;28;20038;-69
2022/01/17 03:53:17;;;;;;;63.58;29.02;;;1.20;64.00;;;;;;4992178;28;20515;-68
2022/01/17 03:55:43;;;;;;;;;;;1.20;64.90;;;;;;4993371;28;20045;-68
2022/01/17 03:58:10;;;;;;;55.33;27.15;;;1.20;64.70;;;;;;4992427;28;19921;-68
2022/01/17 04:00:58;;;;;;;;;;;1.10;64.50;;;;;;4999524;28;20042;-69
2022/01/17 04:03:25;;;;;;;58.28;26.33;;;1.00;64.50;;;;;;5002109;28;19929;-69
2022/01/17 04:05:52;;;;;;;60.25;27.73;;;0.90;64.70;;;;;;4992224;28;20519;-69
2022/01/17 04:08:18;;;;;;;;;;;0.90;64.30;;;;;;5000934;28;20350;-69
2022/01/17 04:10:44;;;;;;;67.05;31.73;;;0.80;64.90;;;;;;5003052;28;20426;-67
2022/01/17 04:13:11;;;;;;;;;;;0.80;65.10;;;;;;4995228;28;20089;-68
2022/01/17 04:15:38;;;;;;;60.90;27.60;;;0.70;65.10;;;;;;4992925;28;19928;-69
2022/01/17 04:18:08;;;;;;;60.63;28.50;;;0.70;65.20;;;;;;4994659;28;20490;-68
2022/01/17 04:20:37;;;;;;;63.22;30.63;;;0.60;65.30;;;;;;5002026;28;20030;-68
2022/01/17 04:23:24;;;;;;;64.47;30.83;;;0.60;65.30;;;;;;5004747;28;20486;-68
2022/01/17 04:25:50;;;;;;;64.53;29.13;;;0.60;65.90;;;;;;4993130;28;20043;-68
2022/01/17 04:28:17;;;;;;;61.53;29.67;;;0.50;65.80;;;;;;4999863;28;20069;-69
2022/01/17 04:30:44;;;;;;;61.13;30.42;;;0.50;65.60;;;;;;5001832;28;20495;-68
2022/01/17 04:33:10;;;;;;;58.20;30.40;;;0.50;65.70;;;;;;4994075;28;20085;-69
2022/01/17 04:35:38;;;;;;;61.97;29.27;;;0.50;65.90;;;;;;4991447;28;20042;-68
2022/01/17 04:38:23;;;;;;;65.40;32.15;;;0.50;65.70;;;;;;4991400;28;20053;-68
2022/01/17 04:41:01;;;;;;;60.67;31.83;;;0.40;65.90;;;;;;4975256;28;20391;-68
2022/01/17 04:46:12;;;;;;;78.38;35.38;;;0.30;65.90;;;;;;4991552;28;20570;-69
2022/01/17 04:48:39;;;;;;;78.30;34.17;;;0.30;65.30;;;;;;5006569;28;20054;-69
2022/01/17 04:51:04;;;;;;;;;;;0.30;65.30;;;;;;4993121;28;20038;-69
2022/01/17 04:53:32;;;;;;;74.13;32.85;;;0.30;65.60;;;;;;4995903;28;19922;-68
2022/01/17 04:55:58;;;;;;;90.63;40.92;;;0.30;65.40;;;;;;5004882;28;20042;-69
2022/01/17 04:58:25;;;;;;;161.95;65.53;;;0.30;65.60;;;;;;4996047;28;20034;-69
2022/01/17 05:00:51;;;;;;;134.65;58.38;;;0.30;65.00;;;;;;5006157;28;20109;-69
2022/01/17 05:03:37;;;;;;;125.45;55.42;;;0.40;65.50;;;;;;4995102;28;20494;-68
2022/01/17 05:06:03;;;;;;;147.25;62.88;;;0.40;65.40;;;;;;4993716;28;20117;-68
2022/01/17 05:08:29;;;;;;;117.22;53.30;;;0.50;66.30;;;;;;5008266;28;20116;-69
2022/01/17 05:10:56;;;;;;;113.28;50.63;;;0.50;65.30;;;;;;4991884;28;20039;-68
2022/01/17 05:13:30;;;;;;;;;;;0.50;65.40;;;;;;4993031;28;20081;-69
2022/01/17 05:16:07;;;;;;;96.20;43.00;;;0.50;64.60;;;;;;4999873;28;19995;-68
2022/01/17 05:21:00;;;;;;;106.78;46.45;;;0.50;65.20;;;;;;5008875;28;20032;-69
2022/01/17 05:23:26;;;;;;;109.45;48.30;;;0.40;65.40;;;;;;4990324;28;20046;-67
2022/01/17 05:25:52;;;;;;;77.28;38.22;;;0.40;65.50;;;;;;4992019;28;20038;-68
2022/01/17 05:28:18;;;;;;;76.32;35.17;;;0.40;65.50;;;;;;4998527;28;20039;-69
2022/01/17 05:30:44;;;;;;;68.93;36.97;;;0.40;65.60;;;;;;4991702;28;20133;-68
2022/01/17 05:33:10;;;;;;;128.82;49.58;;;0.40;65.60;;;;;;5010336;28;20038;-68
2022/01/17 05:35:36;;;;;;;162.20;64.70;;;0.30;65.80;;;;;;5006262;28;20054;-68
2022/01/17 05:38:03;;;;;;;91.72;37.85;;;0.30;65.90;;;;;;4991673;28;20042;-68
2022/01/17 05:40:29;;;;;;;77.75;35.65;;;0.20;66.00;;;;;;4989476;28;20494;-68
2022/01/17 05:42:56;;;;;;;75.78;35.03;;;0.20;65.90;;;;;;4990577;28;20515;-69
2022/01/17 05:45:24;;;;;;;63.88;32.60;;;0.10;66.10;;;;;;4991873;28;20376;-68
2022/01/17 05:47:51;;;;;;;74.88;34.70;;;0.10;66.10;;;;;;4994165;28;20042;-68
2022/01/17 05:50:17;;;;;;;70.22;33.33;;;0.10;66.10;;;;;;4995243;28;20498;-69
2022/01/17 05:52:44;;;;;;;72.70;33.70;;;0.00;66.20;;;;;;4995475;28;20097;-68
2022/01/17 05:55:13;;;;;;;61.90;33.17;;;0.00;66.00;;;;;;4994350;28;20117;-69
2022/01/17 05:57:40;;;;;;;82.07;37.60;;;0.00;66.20;;;;;;5012750;28;20040;-68
2022/01/17 06:00:10;;;;;;;74.68;38.10;;;-0.10;66.40;;;;;;5012073;28;20029;-69
2022/01/17 06:02:36;;;;;;;96.20;41.25;;;-0.20;66.40;;;;;;5011261;28;20045;-69
2022/01/17 06:05:03;;;;;;;98.53;45.13;;;-0.20;66.40;;;;;;4995087;28;20038;-68
2022/01/17 06:07:29;;;;;;;77.40;38.50;;;-0.20;66.40;;;;;;5010315;28;20049;-68
2022/01/17 06:09:55;;;;;;;;;;;-0.20;66.60;;;;;;4996172;28;20044;-68
2022/01/17 06:12:22;;;;;;;85.88;39.90;;;-0.30;66.50;;;;;;5002306;28;19918;-68
2022/01/17 06:14:48;;;;;;;76.70;36.25;;;-0.30;66.60;;;;;;4994905;28;20052;-68
2022/01/17 06:17:14;;;;;;;88.55;42.17;;;-0.40;66.70;;;;;;5010477;28;20042;-69
2022/01/17 06:19:40;;;;;;;102.18;44.63;;;-0.40;66.70;;;;;;4995637;28;20049;-68
2022/01/17 06:22:07;;;;;;;101.35;44.53;;;-0.40;66.70;;;;;;4994194;28;20041;-68
2022/01/17 06:24:34;;;;;;;94.63;43.53;;;-0.50;66.80;;;;;;4995278;28;20077;-69
2022/01/17 06:27:02;;;;;;;99.63;44.42;;;-0.50;66.20;;;;;;4994777;28;20101;-68
2022/01/17 06:29:29;;;;;;;98.72;47.13;;;-0.50;66.80;;;;;;4995212;28;20565;-69
2022/01/17 06:31:55;;;;;;;92.25;41.78;;;-0.60;66.70;;;;;;5008932;28;20030;-68
2022/01/17 06:34:21;;;;;;;95.35;45.40;;;-0.50;66.90;;;;;;5011315;28;20042;-69
2022/01/17 06:36:48;;;;;;;102.88;49.25;;;-0.50;66.90;;;;;;4995488;28;20042;-68
2022/01/17 06:39:14;;;;;;;96.72;45.05;;;-0.60;66.80;;;;;;5011317;28;20030;-69
2022/01/17 06:41:40;;;;;;;94.50;44.70;;;-0.60;66.80;;;;;;4995197;28;20048;-69
2022/01/17 06:44:07;;;;;;;108.07;48.33;;;-0.60;66.90;;;;;;4994044;28;20030;-68
2022/01/17 06:46:34;;;;;;;123.93;52.88;;;-0.70;67.00;;;;;;4995371;28;20390;-68
2022/01/17 06:49:00;;;;;;;174.52;67.28;;;-0.70;66.60;;;;;;4992787;28;20137;-69
2022/01/17 06:51:26;;;;;;;;;;;-0.70;67.20;;;;;;4995623;28;20045;-69
2022/01/17 06:53:52;;;;;;;185.88;70.68;;;-0.70;67.10;;;;;;4995276;28;19925;-67
2022/01/17 06:56:19;;;;;;;200.38;76.75;;;-0.70;67.00;;;;;;4994935;28;20041;-68
2022/01/17 06:58:46;;;;;;;222.43;84.80;;;-0.70;67.00;;;;;;4993219;28;20052;-69
2022/01/17 07:01:14;;;;;;;212.45;75.47;;;-0.70;67.00;;;;;;5003745;28;20054;-69
2022/01/17 07:03:41;;;;;;;210.68;74.07;;;-0.70;66.90;;;;;;5008859;28;20042;-68
2022/01/17 07:06:07;;;;;;;165.77;62.70;;;-0.60;66.70;;;;;;4994381;28;20068;-69
2022/01/17 07:08:33;;;;;;;;;;;-0.70;66.20;;;;;;5001664;28;20488;-69
2022/01/17 07:10:59;;;;;;;90.07;40.83;;;-0.70;66.70;;;;;;5009307;28;19925;-68
2022/01/17 07:13:25;;;;;;;99.32;42.75;;;-0.60;66.60;;;;;;4994879;28;20523;-69
2022/01/17 07:15:52;;;;;;;91.05;42.60;;;-0.60;66.60;;;;;;4994918;28;20049;-68
2022/01/17 07:18:19;;;;;;;96.97;42.80;;;-0.60;66.40;;;;;;4992466;28;20069;-68
2022/01/17 07:20:45;;;;;;;103.97;44.95;;;-0.60;66.60;;;;;;4994487;28;20430;-69
2022/01/17 07:23:11;;;;;;;80.30;39.92;;;-0.60;66.60;;;;;;4994365;28;20044;-69
2022/01/17 07:25:38;;;;;;;87.95;42.13;;;-0.60;66.00;;;;;;4993104;28;20529;-68
2022/01/17 07:28:24;;;;;;;187.20;64.22;;;-0.60;66.60;;;;;;4994174;28;20034;-69
2022/01/17 07:30:50;;;;;;;182.93;59.85;;;-0.60;66.60;;;;;;4994253;28;20042;-69
2022/01/17 07:33:17;;;;;;;189.85;63.97;;;-0.50;66.60;;;;;;4975788;28;20049;-68
2022/01/17 07:35:45;;;;;;;162.35;60.10;;;-0.50;66.50;;;;;;4993880;28;20104;-68
2022/01/17 07:38:12;;;;;;;149.05;59.13;;;-0.40;66.20;;;;;;4993985;28;20061;-68
2022/01/17 07:40:39;;;;;;;132.43;56.85;;;-0.40;65.60;;;;;;5009011;28;20530;-69
2022/01/17 07:43:05;;;;;;;;;;;-0.30;66.40;;;;;;4993143;28;20038;-69
2022/01/17 07:45:32;;;;;;;231.80;89.22;;;-0.30;66.20;;;;;;4995095;28;19940;-68
2022/01/17 07:50:47;;;;;;;194.23;69.45;;;-0.20;65.70;;;;;;4992614;28;20042;-67
2022/01/17 07:53:16;;;;;;;167.85;61.90;;;-0.20;66.30;;;;;;5001578;28;20558;-68
2022/01/17 07:55:42;;;;;;;131.73;52.25;;;-0.10;66.30;;;;;;5000200;28;20050;-69
2022/01/17 07:58:08;;;;;;;91.93;44.75;;;-0.10;66.30;;;;;;4993819;28;20046;-69
2022/01/17 08:00:34;;;;;;;;;;;0.00;66.20;;;;;;5001493;28;20073;-68
2022/01/17 08:03:03;;;;;;;75.35;34.00;;;0.10;66.20;;;;;;5011111;28;20405;-69
2022/01/17 08:05:29;;;;;;;81.75;39.72;;;0.10;65.80;;;;;;5014308;28;20384;-68
2022/01/17 08:07:55;;;;;;;67.03;32.95;;;0.20;66.00;;;;;;4993600;28;20042;-68
2022/01/17 08:10:21;;;;;;;67.68;34.10;;;0.20;66.30;;;;;;4991305;28;20527;-67
2022/01/17 08:12:48;;;;;;;71.60;33.63;;;0.30;66.40;;;;;;4993268;28;20042;-69
2022/01/17 08:15:15;;;;;;;;;;;0.30;66.50;;;;;;5002755;28;20084;-68
2022/01/17 08:17:43;;;;;;;59.08;27.92;;;0.40;66.40;;;;;;5000713;28;19929;-69
2022/01/17 08:20:09;;;;;;;68.25;32.85;;;0.40;66.50;;;;;;4990829;28;20057;-69
2022/01/17 08:22:36;;;;;;;65.03;33.90;;;0.40;66.60;;;;;;4990427;28;20129;-68
2022/01/17 08:25:03;;;;;;;68.80;32.15;;;0.60;67.00;;;;;;4993280;28;20054;-68
2022/01/17 08:27:29;;;;;;;64.57;31.48;;;0.60;66.40;;;;;;4992520;28;20373;-69
2022/01/17 08:29:57;;;;;;;57.65;29.40;;;0.70;66.90;;;;;;4991247;28;20057;-69
2022/01/17 08:32:23;;;;;;;55.85;30.17;;;0.80;66.50;;;;;;5006959;28;20048;-68
2022/01/17 08:34:49;;;;;;;63.72;30.27;;;0.90;65.80;;;;;;4992743;28;20124;-68
2022/01/17 08:37:15;;;;;;;68.43;33.30;;;1.00;66.50;;;;;;4992824;28;20038;-68
2022/01/17 08:39:41;;;;;;;53.97;28.45;;;1.20;66.40;;;;;;4991775;28;20069;-69
2022/01/17 08:42:10;;;;;;;;;;;1.30;65.70;;;;;;4992801;28;20089;-69
2022/01/17 08:47:29;;;;;;;48.75;25.75;;;1.40;65.80;;;;;;4991460;28;20050;-68
2022/01/17 08:49:55;;;;;;;;;;;1.50;66.00;;;;;;4992039;28;20074;-68
2022/01/17 08:52:21;;;;;;;58.30;25.83;;;1.60;65.80;;;;;;5006366;28;19921;-69
2022/01/17 08:54:47;;;;;;;60.58;29.90;;;1.70;65.70;;;;;;4994896;28;20039;-69
2022/01/17 08:57:14;;;;;;;;;;;1.80;65.60;;;;;;5008173;28;20033;-69
2022/01/17 08:59:41;;;;;;;51.25;27.60;;;2.00;65.30;;;;;;5006804;28;20036;-68
2022/01/17 09:02:07;;;;;;;55.60;27.88;;;2.10;65.10;;;;;;4993471;28;20046;-69
2022/01/17 09:04:35;;;;;;;53.25;29.70;;;2.40;65.80;;;;;;4992329;28;20038;-68
2022/01/17 09:07:01;;;;;;;70.00;33.30;;;4.30;62.50;;;;;;4990801;28;20046;-68
2022/01/17 09:09:27;;;;;;;65.32;30.40;;;6.30;56.90;;;;;;4992628;28;20034;-69
2022/01/17 09:11:54;;;;;;;59.00;28.67;;;7.70;53.70;;;;;;4991636;28;20419;-68
2022/01/17 09:14:20;;;;;;;62.67;29.23;;;8.30;52.30;;;;;;4991901;28;20047;-69
2022/01/17 09:16:46;;;;;;;56.17;28.85;;;9.40;51.20;;;;;;4990790;28;20225;-69
2022/01/17 09:19:12;;;;;;;62.92;31.73;;;9.90;50.70;;;;;;4992563;28;20034;-69
2022/01/17 09:21:38;;;;;;;52.53;28.08;;;9.60;51.90;;;;;;4989985;28;20101;-69
2022/01/17 09:24:05;;;;;;;56.38;29.08;;;9.50;53.20;;;;;;4975222;28;20462;-68
2022/01/17 09:26:31;;;;;;;58.92;31.42;;;9.10;54.30;;;;;;4991965;28;20038;-69
2022/01/17 09:28:57;;;;;;;58.63;30.52;;;9.20;55.20;;;;;;4992014;28;20045;-69
2022/01/17 09:31:23;;;;;;;60.45;30.42;;;9.50;54.70;;;;;;4992424;28;20039;-69
2022/01/17 09:33:50;;;;;;;55.03;29.77;;;9.90;53.20;;;;;;5005986;28;20061;-69
2022/01/17 09:36:16;;;;;;;57.53;30.30;;;9.50;53.60;;;;;;4994615;28;20045;-69
2022/01/17 09:38:42;;;;;;;66.00;32.08;;;9.20;54.60;;;;;;4990837;28;20035;-69
2022/01/17 09:41:09;;;;;;;;;;;8.80;55.20;;;;;;5005467;28;20038;-69
2022/01/17 09:43:37;;;;;;;56.25;28.08;;;9.30;55.50;;;;;;4993899;28;19921;-69
2022/01/17 09:46:03;;;;;;;52.08;26.80;;;9.30;53.20;;;;;;5006238;28;20149;-69
2022/01/17 09:48:38;;;;;;;54.80;26.20;;;8.80;53.50;;;;;;4991948;28;20054;-69
2022/01/17 09:52:02;;;;;;;58.17;30.17;;;8.70;54.40;;;;;;5006856;28;20460;-69
2022/01/17 09:54:30;;;;;;;48.38;25.48;;;8.90;53.80;;;;;;5011491;28;20166;-69
2022/01/17 09:56:59;;;;;;;50.08;25.70;;;9.60;52.00;;;;;;5013881;28;20043;-70
2022/01/17 09:59:26;;;;;;;52.42;26.40;;;10.40;50.40;;;;;;5007686;28;20061;-69
2022/01/17 10:01:52;;;;;;;43.60;24.15;;;11.90;47.50;;;;;;5003836;28;20030;-70
2022/01/17 10:04:19;;;;;;;45.97;25.45;;;12.70;44.50;;;;;;4990316;28;20327;-69
2022/01/17 10:06:53;;;;;;;47.25;25.88;;;12.50;44.60;;;;;;4991463;28;20367;-70
2022/01/17 10:09:24;;;;;;;47.03;24.27;;;11.60;46.10;;;;;;4990931;28;20085;-69
2022/01/17 10:12:27;;;;;;;43.15;22.65;;;10.90;47.40;;;;;;4990373;28;20046;-69
2022/01/17 10:15:00;;;;;;;49.13;24.63;;;10.20;49.40;;;;;;4991135;28;20036;-70
2022/01/17 10:17:50;;;;;;;50.53;25.10;;;9.80;49.30;;;;;;4991766;28;20435;-69
2022/01/17 10:20:18;;;;;;;45.00;24.00;;;9.50;50.50;;;;;;5006393;28;20049;-70
2022/01/17 10:22:53;;;;;;;44.08;25.45;;;9.30;50.90;;;;;;5003215;28;20550;-70
2022/01/17 10:25:36;;;;;;;49.45;25.60;;;9.20;51.10;;;;;;4989265;28;20046;-69
2022/01/17 10:36:23;;;;;;;81.18;38.88;;;9.20;51.00;;;;;;4994585;28;20041;-70
2022/01/17 10:39:06;;;;;;;55.20;28.42;;;9.70;49.80;;;;;;4994943;28;20085;-69
2022/01/17 10:41:32;;;;;;;72.68;35.85;;;10.10;48.90;;;;;;4992525;28;20054;-69
2022/01/17 10:43:58;;;;;;;68.70;37.08;;;10.50;48.10;;;;;;4993635;28;20041;-69
2022/01/17 10:46:25;;;;;;;65.75;33.33;;;10.60;47.70;;;;;;4995225;28;20039;-70
2022/01/17 10:48:53;;;;;;;52.25;26.17;;;10.70;47.50;;;;;;4987153;28;20069;-69
2022/01/17 10:51:45;;;;;;;41.33;22.27;;;10.70;46.80;;;;;;5000755;28;20394;-69
2022/01/17 10:54:14;;;;;;;38.03;22.20;;;11.00;46.80;;;;;;5007938;28;20172;-70
2022/01/17 10:57:00;;;;;;;42.08;22.98;;;11.50;45.60;;;;;;5026035;28;20486;-69
2022/01/17 10:59:29;;;;;;;44.75;26.08;;;12.90;43.20;;;;;;5014323;28;20042;-69
2022/01/17 11:01:55;;;;;;;43.22;24.10;;;13.20;41.60;;;;;;5029303;28;20084;-69
2022/01/17 11:04:41;;;;;;;36.35;20.40;;;12.90;42.30;;;;;;5012935;28;20084;-69
2022/01/17 11:07:09;;;;;;;45.45;21.25;;;12.80;42.50;;;;;;5028556;28;20131;-69
2022/01/17 11:09:57;;;;;;;34.65;19.42;;;12.30;43.60;;;;;;5012502;28;20160;-70
2022/01/17 11:12:29;;;;;;;38.53;20.58;;;12.30;43.80;;;;;;5015199;28;20026;-70
2022/01/17 11:14:57;;;;;;;34.90;20.48;;;12.40;43.40;;;;;;5030096;28;20045;-69
2022/01/17 11:17:33;;;;;;;39.35;20.35;;;12.40;43.60;;;;;;5028454;28;20030;-70
2022/01/17 11:20:20;;;;;;;35.72;19.48;;;12.30;43.60;;;;;;5017309;28;20096;-70
2022/01/17 11:22:49;;;;;;;36.53;17.45;;;12.30;43.20;;;;;;5013269;28;20034;-70
2022/01/17 11:25:39;;;;;;;31.05;16.17;;;12.20;42.30;;;;;;5019456;28;20459;-69
2022/01/17 11:28:06;;;;;;;31.00;17.52;;;11.70;42.40;;;;;;5049948;28;20475;-69
2022/01/17 11:30:37;;;;;;;30.95;18.00;;;11.50;42.80;;;;;;5016658;28;20037;-69
2022/01/17 11:33:08;;;;;;;35.35;18.05;;;11.30;43.70;;;;;;5034896;28;20033;-69
2022/01/17 11:35:41;;;;;;;31.80;17.20;;;10.90;44.30;;;;;;5017112;28;20048;-69
2022/01/17 11:38:48;;;;;;;37.92;21.77;;;10.50;45.40;;;;;;5049406;28;20041;-70
2022/01/17 11:41:35;;;;;;;35.97;20.10;;;10.10;46.50;;;;;;5033183;28;20546;-70
2022/01/17 11:44:33;;;;;;;38.97;19.80;;;9.90;47.00;;;;;;5048882;28;20040;-70
2022/01/17 11:46:59;;;;;;;32.55;17.48;;;9.80;47.30;;;;;;5032783;28;20848;-69
2022/01/17 11:49:45;;;;;;;31.20;17.77;;;9.70;47.60;;;;;;5016217;28;20049;-69
2022/01/17 11:52:29;;;;;;;39.30;19.73;;;9.60;48.00;;;;;;5033024;28;20041;-70
2022/01/17 11:54:55;;;;;;;35.72;19.85;;;9.60;48.10;;;;;;5032931;28;20038;-69
2022/01/17 11:57:23;;;;;;;37.38;20.17;;;9.80;48.00;;;;;;5032958;28;20041;-70
2022/01/17 11:59:50;;;;;;;33.83;19.02;;;9.90;47.10;;;;;;5036387;28;20064;-70
2022/01/17 12:02:37;;;;;;;36.85;20.13;;;10.10;47.10;;;;;;5036480;28;20389;-70
2022/01/17 12:05:06;;;;;;;35.17;19.70;;;10.30;46.90;;;;;;5034357;28;20478;-69
2022/01/17 12:07:53;;;;;;;38.88;20.35;;;10.40;46.90;;;;;;5034111;28;20133;-70
2022/01/17 12:11:01;;;;;;;40.55;21.38;;;10.30;46.80;;;;;;5032647;28;20022;-69
2022/01/17 12:13:51;;;;;;;42.22;22.08;;;10.60;46.50;;;;;;5032629;28;20103;-69
2022/01/17 12:16:37;;;;;;;35.92;19.45;;;10.80;45.50;;;;;;5032663;28;20041;-70
2022/01/17 12:19:07;;;;;;;35.22;20.45;;;11.00;44.90;;;;;;5032430;28;20041;-70
2022/01/17 12:21:40;;;;;;;39.63;18.88;;;10.90;44.70;;;;;;5032391;28;20033;-70
2022/01/17 12:24:46;;;;;;;43.47;21.85;;;10.90;44.80;;;;;;5033621;28;20117;-70
2022/01/17 12:27:30;;;;;;;38.60;20.13;;;10.90;45.30;;;;;;5033602;28;20029;-69
2022/01/17 12:30:16;;;;;;;37.47;22.05;;;10.70;45.60;;;;;;5032157;28;20091;-69
2022/01/17 12:32:49;;;;;;;42.83;23.27;;;10.40;45.80;;;;;;5047904;28;20034;-69
2022/01/17 12:35:45;;;;;;;40.47;23.08;;;10.30;46.30;;;;;;5048389;28;20482;-69
2022/01/17 12:38:46;;;;;;;41.90;22.10;;;10.10;46.70;;;;;;5048204;28;20045;-69
2022/01/17 12:41:34;;;;;;;41.83;22.63;;;10.10;46.90;;;;;;5033158;28;20059;-69
2022/01/17 12:44:30;;;;;;;42.20;20.48;;;10.40;46.60;;;;;;5015534;28;20033;-70
2022/01/17 12:47:00;;;;;;;41.38;22.52;;;10.80;45.70;;;;;;5032477;28;20395;-69
2022/01/17 12:49:30;;;;;;;45.13;23.67;;;11.20;44.70;;;;;;5033060;28;20561;-69
2022/01/17 12:51:59;;;;;;;35.50;18.15;;;11.60;43.80;;;;;;5033220;28;20414;-69
2022/01/17 12:54:30;;;;;;;38.58;20.85;;;12.30;42.00;;;;;;5031772;28;20032;-69
2022/01/17 12:56:59;;;;;;;42.42;21.88;;;12.90;41.20;;;;;;5048175;28;20072;-70
2022/01/17 12:59:26;;;;;;;38.35;22.00;;;13.20;40.30;;;;;;5033185;28;20454;-69
2022/01/17 13:02:12;;;;;;;44.95;22.27;;;13.30;40.30;;;;;;5026203;28;20049;-70
2022/01/17 13:04:39;;;;;;;36.92;21.33;;;13.50;40.50;;;;;;5032821;28;20511;-70
2022/01/17 13:07:07;;;;;;;39.05;20.05;;;13.40;39.90;;;;;;5032954;28;20407;-69
2022/01/17 13:09:40;;;;;;;38.60;20.48;;;13.30;40.00;;;;;;5032755;28;20028;-69
2022/01/17 13:12:09;;;;;;;36.08;19.17;;;13.40;40.10;;;;;;5015317;28;20088;-69
2022/01/17 13:14:35;;;;;;;41.50;22.90;;;13.80;39.50;;;;;;5021056;28;20034;-70
2022/01/17 13:17:08;;;;;;;33.85;18.65;;;14.20;39.50;;;;;;5011857;28;20129;-69
2022/01/17 13:19:36;;;;;;;35.25;20.27;;;15.00;37.60;;;;;;5010543;28;20127;-70
2022/01/17 13:22:03;;;;;;;37.05;18.83;;;15.00;37.30;;;;;;5010916;28;20762;-70
2022/01/17 13:24:37;;;;;;;36.40;20.38;;;14.50;37.70;;;;;;5012591;28;20093;-69
2022/01/17 13:27:22;;;;;;;36.17;20.38;;;14.20;38.30;;;;;;5011943;28;20034;-70